Time;durP1;ratioP1;P1;durP2;ratioP2;P2;SDS_P1;SDS_P2;PMS_P1;PMS_P2;Temp;Humidity;BMP_temperature;BMP_pressure;BME280_temperature;BME280_humidity;BME280_pressure;Samples;Min_cycle;Max_cycle;Signal;HPM_P1;HPM_P2
2022/06/29 00:00:22;;;;;;;15.80;14.10;;;;;;;21.99;72.23;100369.84;106915;1281;96034;-70
2022/06/29 00:03:11;;;;;;;18.10;15.00;;;;;;;21.92;72.44;100361.02;106892;1281;112737;-69
2022/06/29 00:05:43;;;;;;;22.60;15.30;;;;;;;21.91;72.90;100364.48;106983;1280;108986;-70
2022/06/29 00:08:17;;;;;;;17.20;14.50;;;;;;;21.91;72.68;100363.04;105821;1281;138951;-69
2022/06/29 00:10:49;;;;;;;18.20;15.50;;;;;;;21.94;73.12;100367.62;105744;1281;99050;-68
2022/06/29 00:13:22;;;;;;;17.10;15.40;;;;;;;21.93;73.15;100373.99;106135;1280;140545;-70
2022/06/29 00:15:54;;;;;;;19.20;16.50;;;;;;;21.92;73.04;100374.27;106866;1281;111504;-68
2022/06/29 00:18:27;;;;;;;19.40;17.40;;;;;;;21.94;73.26;100373.10;106897;1280;109042;-69
2022/06/29 00:20:59;;;;;;;20.20;17.60;;;;;;;21.95;73.17;100368.06;106952;1279;109043;-70
2022/06/29 00:23:32;;;;;;;20.80;17.90;;;;;;;21.96;73.37;100369.00;106817;1281;96202;-69
2022/06/29 00:26:04;;;;;;;21.50;18.70;;;;;;;21.97;73.49;100367.16;106647;1283;139149;-69
2022/06/29 00:28:36;;;;;;;22.70;18.30;;;;;;;21.99;73.32;100360.48;106932;1281;112619;-69
2022/06/29 00:31:09;;;;;;;23.00;18.70;;;;;;;22.02;73.46;100362.70;106846;1281;139451;-69
2022/06/29 00:33:41;;;;;;;22.50;19.00;;;;;;;22.05;73.28;100359.45;106970;1281;109238;-69
2022/06/29 00:36:14;;;;;;;20.50;17.70;;;;;;;22.08;73.42;100357.84;105908;1281;98569;-70
2022/06/29 00:38:46;;;;;;;20.30;18.30;;;;;;;22.11;73.47;100355.52;106807;1280;140012;-70
2022/06/29 00:41:19;;;;;;;21.20;18.50;;;;;;;22.14;73.53;100356.85;106966;1281;113304;-70
2022/06/29 00:43:51;;;;;;;23.20;18.80;;;;;;;22.15;73.28;100358.52;106893;1280;139906;-70
2022/06/29 00:46:24;;;;;;;22.60;19.70;;;;;;;22.17;73.29;100360.86;106972;1280;108701;-70
2022/06/29 00:48:56;;;;;;;23.30;20.40;;;;;;;22.19;73.25;100362.95;106866;1281;139072;-70
2022/06/29 00:51:32;;;;;;;23.40;20.70;;;;;;;22.18;73.32;100357.20;106949;1281;96169;-70
2022/06/29 00:54:04;;;;;;;;;;;;;;;22.17;73.28;100356.23;107018;1280;112355;-70
2022/06/29 00:56:38;;;;;;;24.40;21.70;;;;;;;22.16;73.29;100354.90;105632;1281;127206;-69
2022/06/29 00:59:13;;;;;;;25.00;22.50;;;;;;;22.14;73.40;100349.94;106302;1281;109088;-69
2022/06/29 01:01:45;;;;;;;27.80;22.70;;;;;;;22.11;73.56;100338.84;106501;1281;139173;-69
2022/06/29 01:04:18;;;;;;;25.10;21.70;;;;;;;22.10;73.49;100329.23;106988;1281;95761;-70
2022/06/29 01:06:51;;;;;;;25.00;22.30;;;;;;;22.10;73.49;100322.48;106714;1281;138990;-70
2022/06/29 01:09:23;;;;;;;25.30;22.60;;;;;;;22.12;73.50;100315.98;106960;1281;108181;-70
2022/06/29 01:11:55;;;;;;;27.80;22.30;;;;;;;22.11;73.45;100304.98;106481;1281;109116;-71
2022/06/29 01:14:28;;;;;;;24.30;21.70;;;;;;;22.12;73.66;100302.11;106861;1280;140648;-70
2022/06/29 01:17:06;;;;;;;25.30;22.60;;;;;;;22.13;73.72;100309.09;107007;1280;96175;-70
2022/06/29 01:19:39;;;;;;;25.10;22.60;;;;;;;22.14;73.72;100310.44;105879;1281;138918;-69
2022/06/29 01:22:14;;;;;;;26.20;23.30;;;;;;;22.15;73.85;100304.21;105667;1281;109064;-70
2022/06/29 01:24:47;;;;;;;26.80;23.20;;;;;;;22.15;73.63;100299.73;106830;1281;139103;-70
2022/06/29 01:27:22;;;;;;;27.50;24.60;;;;;;;22.14;73.71;100287.77;106989;1281;95881;-69
2022/06/29 01:29:55;;;;;;;28.80;24.30;;;;;;;22.14;73.56;100288.65;106425;1281;95791;-70
2022/06/29 01:32:27;;;;;;;27.70;24.00;;;;;;;22.13;73.66;100284.85;106873;1281;139222;-70
2022/06/29 01:34:59;;;;;;;31.00;25.30;;;;;;;22.11;73.86;100284.64;106480;1281;108271;-70
2022/06/29 01:37:32;;;;;;;27.80;24.70;;;;;;;22.10;73.70;100280.65;105675;1281;139672;-71
2022/06/29 01:40:07;;;;;;;26.80;23.90;;;;;;;22.10;73.92;100279.45;106343;1281;98135;-70
2022/06/29 01:42:40;;;;;;;28.50;25.50;;;;;;;22.09;74.11;100276.16;106892;1281;139039;-70
2022/06/29 01:45:13;;;;;;;31.00;25.50;;;;;;;22.08;73.99;100279.02;107002;1281;111725;-70
2022/06/29 01:47:45;;;;;;;32.90;27.10;;;;;;;22.08;74.04;100274.26;107036;1281;109029;-70
2022/06/29 01:50:17;;;;;;;31.70;28.30;;;;;;;22.08;73.96;100270.35;106744;1281;138903;-69
2022/06/29 01:52:49;;;;;;;34.20;28.60;;;;;;;22.05;73.90;100262.80;106995;1281;96220;-70
2022/06/29 01:55:22;;;;;;;29.80;26.60;;;;;;;22.02;73.90;100261.61;106725;1281;138852;-69
2022/06/29 01:57:54;;;;;;;29.20;26.20;;;;;;;22.01;73.93;100266.48;107009;1281;112843;-70
2022/06/29 02:00:27;;;;;;;30.00;24.90;;;;;;;22.00;73.79;100271.81;106174;1281;109048;-69
2022/06/29 02:03:00;;;;;;;26.40;23.40;;;;;;;22.00;73.75;100270.75;106808;1280;109099;-69
2022/06/29 02:05:32;;;;;;;24.00;21.50;;;;;;;21.99;73.59;100276.50;106814;1280;96157;-70
2022/06/29 02:08:05;;;;;;;23.00;20.70;;;;;;;21.98;73.76;100275.23;106381;1280;138808;-70
2022/06/29 02:10:37;;;;;;;26.30;22.20;;;;;;;21.95;73.49;100274.89;106958;1281;112510;-70
2022/06/29 02:13:10;;;;;;;21.30;19.00;;;;;;;21.93;73.23;100277.05;106895;1281;139305;-70
2022/06/29 02:15:42;;;;;;;21.20;18.70;;;;;;;21.89;73.26;100266.38;106979;1281;108944;-69
2022/06/29 02:18:14;;;;;;;21.00;18.70;;;;;;;21.87;73.01;100267.95;107015;1279;95816;-70
2022/06/29 02:20:47;;;;;;;21.80;17.70;;;;;;;21.84;73.10;100267.45;106869;1281;138721;-70
2022/06/29 02:23:20;;;;;;;20.50;16.60;;;;;;;21.80;72.77;100266.36;105926;1284;111478;-70
2022/06/29 02:25:52;;;;;;;18.80;16.90;;;;;;;21.77;72.90;100272.50;106093;1281;139078;-70
2022/06/29 02:28:25;;;;;;;16.80;15.10;;;;;;;21.73;72.70;100276.00;105577;1281;108543;-69
2022/06/29 02:36:37;;;;;;;17.20;15.20;;;;;;;21.60;72.70;100276.42;106835;1281;138916;-69
2022/06/29 02:39:10;;;;;;;19.90;15.50;;;;;;;21.56;72.73;100278.84;106977;1281;108383;-69
2022/06/29 02:41:42;;;;;;;16.30;14.60;;;;;;;21.54;72.69;100278.29;105829;1281;108589;-69
2022/06/29 02:44:14;;;;;;;16.10;14.40;;;;;;;21.53;72.76;100278.38;106207;1280;139114;-69
2022/06/29 02:46:47;;;;;;;18.10;14.60;;;;;;;21.50;72.75;100283.34;106175;1281;97844;-69
2022/06/29 02:49:19;;;;;;;17.00;14.60;;;;;;;21.49;72.79;100284.71;106088;1280;139211;-68
2022/06/29 02:51:52;;;;;;;20.60;16.40;;;;;;;21.47;72.83;100284.64;105884;1281;108918;-69
2022/06/29 02:54:25;;;;;;;15.60;13.50;;;;;;;21.47;72.89;100288.20;105978;1281;109634;-69
2022/06/29 02:56:57;;;;;;;16.40;13.80;;;;;;;21.47;72.89;100287.18;106812;1280;138699;-69
2022/06/29 02:59:30;;;;;;;15.70;13.30;;;;;;;21.47;72.91;100281.12;106981;1280;95960;-69
2022/06/29 03:02:02;;;;;;;15.10;13.20;;;;;;;21.47;72.86;100279.02;106851;1281;139199;-70
2022/06/29 03:04:35;;;;;;;17.10;13.60;;;;;;;21.49;72.74;100276.54;106845;1281;109732;-69
2022/06/29 03:07:07;;;;;;;20.80;15.00;;;;;;;21.49;72.49;100279.58;106893;1281;139873;-69
2022/06/29 03:09:39;;;;;;;17.70;15.00;;;;;;;21.49;72.77;100282.09;106877;1281;97876;-69
2022/06/29 03:12:12;;;;;;;19.10;15.60;;;;;;;21.50;72.69;100286.02;106066;1281;97846;-68
2022/06/29 03:14:45;;;;;;;19.80;15.50;;;;;;;21.50;72.68;100283.41;105783;1281;139114;-69
2022/06/29 03:17:17;;;;;;;20.50;16.30;;;;;;;21.47;72.46;100286.09;106684;1281;108755;-70
2022/06/29 03:19:50;;;;;;;21.10;16.20;;;;;;;21.48;72.47;100278.23;105604;1281;139037;-69
2022/06/29 03:22:22;;;;;;;18.50;15.30;;;;;;;21.48;72.61;100274.15;106492;1280;97875;-70
2022/06/29 03:24:55;;;;;;;20.00;16.80;;;;;;;21.46;72.90;100267.92;105811;1281;139402;-70
2022/06/29 03:27:27;;;;;;;19.50;16.10;;;;;;;21.45;72.72;100268.22;105649;1281;112651;-70
2022/06/29 03:30:01;;;;;;;17.80;15.40;;;;;;;21.43;72.61;100265.54;105765;1281;109064;-69
2022/06/29 03:32:33;;;;;;;18.90;16.90;;;;;;;21.42;72.75;100265.75;106819;1281;139502;-71
2022/06/29 03:35:07;;;;;;;19.10;15.90;;;;;;;21.46;72.91;100272.05;106975;1280;95984;-70
2022/06/29 03:37:40;;;;;;;19.60;17.40;;;;;;;21.48;72.79;100275.77;106903;1281;138865;-70
2022/06/29 03:40:13;;;;;;;21.00;17.50;;;;;;;21.47;72.80;100276.01;106996;1280;110790;-71
2022/06/29 03:42:46;;;;;;;22.90;17.50;;;;;;;21.48;72.83;100274.20;106880;1281;139180;-70
2022/06/29 03:45:19;;;;;;;20.50;17.40;;;;;;;21.47;72.81;100273.50;106867;1279;107805;-70
2022/06/29 03:47:52;;;;;;;20.50;17.00;;;;;;;21.48;72.77;100278.22;106219;1281;97907;-70
2022/06/29 03:50:24;;;;;;;23.30;17.80;;;;;;;21.47;72.73;100278.33;105654;1280;138997;-69
2022/06/29 03:52:57;;;;;;;19.70;17.60;;;;;;;21.48;72.76;100280.92;105723;1281;112551;-69
2022/06/29 03:55:29;;;;;;;22.00;18.60;;;;;;;21.47;72.75;100281.48;105555;1281;140198;-69
2022/06/29 03:58:01;;;;;;;21.90;18.40;;;;;;;21.44;72.81;100272.70;106869;1281;106698;-69
2022/06/29 04:00:34;;;;;;;21.70;19.00;;;;;;;21.44;72.96;100270.46;106838;1281;139959;-69
2022/06/29 04:03:06;;;;;;;21.80;18.30;;;;;;;21.44;72.99;100266.23;106994;1281;96301;-70
2022/06/29 04:05:39;;;;;;;24.40;18.60;;;;;;;21.42;72.97;100262.04;106970;1281;112582;-69
2022/06/29 04:08:11;;;;;;;24.40;18.90;;;;;;;21.42;72.90;100257.46;106880;1280;139752;-69
2022/06/29 04:10:44;;;;;;;21.70;18.90;;;;;;;21.44;73.06;100251.51;106955;1280;107769;-69
2022/06/29 04:13:17;;;;;;;21.40;18.60;;;;;;;21.46;73.12;100244.80;106652;1283;139854;-69
2022/06/29 04:15:51;;;;;;;21.50;19.30;;;;;;;21.51;73.23;100236.80;106974;1280;96619;-69
2022/06/29 04:18:23;;;;;;;24.00;18.70;;;;;;;21.55;73.22;100232.75;107014;1280;112711;-69
2022/06/29 04:21:08;;;;;;;24.10;19.50;;;;;;;21.59;73.08;100234.40;106858;1279;138859;-69
2022/06/29 04:23:40;;;;;;;19.90;17.30;;;;;;;21.63;72.88;100236.59;106811;1281;109412;-69
2022/06/29 04:26:13;;;;;;;24.50;18.10;;;;;;;21.67;72.75;100235.71;106833;1281;139541;-69
2022/06/29 04:28:45;;;;;;;20.80;17.90;;;;;;;21.70;72.83;100238.09;106994;1280;95813;-68
2022/06/29 04:31:18;;;;;;;19.30;16.40;;;;;;;21.75;72.84;100237.25;106805;1280;139136;-69
2022/06/29 04:33:50;;;;;;;22.10;16.70;;;;;;;21.78;72.57;100237.17;107013;1281;108941;-69
2022/06/29 04:36:22;;;;;;;18.90;16.20;;;;;;;21.82;72.48;100233.16;106958;1281;107370;-68
2022/06/29 04:38:55;;;;;;;18.00;16.00;;;;;;;21.89;72.45;100235.21;106888;1281;138731;-69
2022/06/29 04:41:28;;;;;;;16.40;14.70;;;;;;;21.95;72.28;100234.34;106240;1281;97867;-71
2022/06/29 04:44:00;;;;;;;16.50;14.70;;;;;;;21.98;71.85;100231.83;106910;1281;140071;-69
2022/06/29 04:46:33;;;;;;;16.20;13.60;;;;;;;21.99;71.78;100228.23;107046;1280;108531;-69
2022/06/29 04:49:06;;;;;;;16.10;14.40;;;;;;;22.02;71.73;100227.05;106204;1281;139464;-68
2022/06/29 04:51:39;;;;;;;16.40;14.70;;;;;;;22.07;71.68;100225.30;106954;1280;96381;-70
2022/06/29 04:54:11;;;;;;;15.80;14.10;;;;;;;22.11;71.40;100223.41;107016;1280;96128;-69
2022/06/29 04:56:44;;;;;;;15.30;13.50;;;;;;;22.15;71.54;100226.09;106872;1281;140490;-69
2022/06/29 04:59:16;;;;;;;17.20;14.40;;;;;;;22.16;71.26;100233.56;107003;1281;107943;-69
2022/06/29 05:01:49;;;;;;;17.40;14.20;;;;;;;22.17;71.02;100236.87;106857;1281;139558;-69
2022/06/29 05:04:21;;;;;;;16.30;14.60;;;;;;;22.18;71.00;100241.21;106905;1280;95986;-68
2022/06/29 05:06:54;;;;;;;16.70;14.90;;;;;;;22.20;71.13;100246.02;106868;1281;138926;-69
2022/06/29 05:09:26;;;;;;;17.00;14.90;;;;;;;22.22;70.94;100250.23;106947;1280;112968;-68
2022/06/29 05:11:58;;;;;;;18.10;14.20;;;;;;;22.25;70.95;100247.88;107038;1281;107646;-69
2022/06/29 05:14:30;;;;;;;16.20;13.80;;;;;;;22.29;70.93;100251.16;106865;1280;140435;-69
2022/06/29 05:17:03;;;;;;;16.40;13.40;;;;;;;22.32;70.60;100258.52;106930;1281;96257;-70
2022/06/29 05:19:35;;;;;;;18.70;14.60;;;;;;;22.34;70.72;100257.86;105863;1281;140453;-69
2022/06/29 05:22:08;;;;;;;18.60;16.30;;;;;;;22.36;70.67;100257.17;105743;1281;111735;-70
2022/06/29 05:24:41;;;;;;;20.50;14.20;;;;;;;22.36;70.41;100251.11;106139;1281;139202;-69
2022/06/29 05:27:14;;;;;;;19.10;13.70;;;;;;;22.36;70.39;100249.55;106839;1281;108829;-70
2022/06/29 05:29:46;;;;;;;16.30;14.40;;;;;;;22.36;70.25;100255.61;106946;1281;96001;-70
2022/06/29 05:32:18;;;;;;;20.50;14.70;;;;;;;22.34;70.47;100253.80;106773;1281;140507;-70
2022/06/29 05:34:50;;;;;;;17.80;14.20;;;;;;;22.32;70.12;100250.73;107004;1280;112259;-69
2022/06/29 05:37:23;;;;;;;16.30;13.60;;;;;;;22.29;70.26;100251.66;106828;1280;140431;-70
2022/06/29 05:39:55;;;;;;;20.20;15.60;;;;;;;22.29;70.48;100252.22;106994;1281;107243;-70
2022/06/29 05:42:27;;;;;;;23.50;20.30;;;;;;;22.30;70.48;100250.52;106986;1280;96256;-69
2022/06/29 05:44:59;;;;;;;19.00;15.20;;;;;;;22.34;70.48;100248.83;107077;1281;96194;-69
2022/06/29 05:47:31;;;;;;;15.30;13.50;;;;;;;22.37;70.45;100249.30;106833;1280;112224;-71
2022/06/29 05:50:04;;;;;;;17.60;13.80;;;;;;;22.35;70.25;100246.26;105847;1281;139473;-70
2022/06/29 05:52:37;;;;;;;16.80;15.10;;;;;;;22.32;70.14;100253.03;106982;1281;108181;-70
2022/06/29 05:55:10;;;;;;;17.20;14.00;;;;;;;22.29;70.12;100254.99;105620;1281;139325;-70
2022/06/29 05:57:43;;;;;;;16.20;14.50;;;;;;;22.31;70.08;100256.44;105707;1281;97811;-70
2022/06/29 06:00:16;;;;;;;21.20;17.50;;;;;;;22.33;70.03;100261.96;105705;1281;110911;-69
2022/06/29 06:02:55;;;;;;;20.80;16.90;;;;;;;22.37;70.10;100265.89;105948;1280;138681;-70
2022/06/29 06:05:28;;;;;;;20.20;17.10;;;;;;;22.41;70.03;100265.25;106895;1281;108930;-69
2022/06/29 06:08:00;;;;;;;22.80;17.80;;;;;;;22.46;70.13;100263.58;105970;1281;139010;-71
2022/06/29 06:10:33;;;;;;;22.90;17.30;;;;;;;22.51;69.95;100264.05;106986;1280;96132;-70
2022/06/29 06:13:06;;;;;;;19.90;16.90;;;;;;;22.59;69.91;100264.84;106882;1280;140168;-69
2022/06/29 06:15:39;;;;;;;22.10;16.60;;;;;;;22.66;70.05;100264.44;106800;1281;108887;-76
2022/06/29 06:18:11;;;;;;;22.40;17.00;;;;;;;22.77;69.57;100263.70;107007;1281;107864;-70
2022/06/29 06:20:44;;;;;;;21.80;17.20;;;;;;;22.82;69.12;100263.63;106842;1281;140925;-70
2022/06/29 06:23:16;;;;;;;25.50;17.70;;;;;;;22.91;69.38;100271.06;106235;1280;97927;-71
2022/06/29 06:25:49;;;;;;;19.70;16.20;;;;;;;23.00;69.13;100273.17;105551;1281;138852;-70
2022/06/29 06:28:21;;;;;;;20.50;15.30;;;;;;;23.05;68.77;100273.23;106984;1280;108986;-71
2022/06/29 06:30:54;;;;;;;16.40;14.90;;;;;;;23.10;68.26;100273.34;106833;1281;139073;-73
2022/06/29 06:33:26;;;;;;;21.60;19.00;;;;;;;23.13;68.35;100268.14;106981;1281;96297;-71
2022/06/29 06:35:58;;;;;;;19.70;15.80;;;;;;;23.17;68.11;100268.36;106441;1280;96182;-70
2022/06/29 06:38:31;;;;;;;17.40;15.60;;;;;;;23.23;67.88;100270.70;105630;1281;138839;-70
2022/06/29 06:43:55;;;;;;;16.90;14.80;;;;;;;23.43;67.61;100269.11;105337;1281;139066;-70
2022/06/29 06:46:29;;;;;;;17.10;14.70;;;;;;;23.50;67.14;100262.30;106863;1280;96092;-71
2022/06/29 06:49:02;;;;;;;20.10;14.60;;;;;;;23.57;66.98;100264.58;105767;1282;139073;-70
2022/06/29 06:51:34;;;;;;;16.30;14.60;;;;;;;23.67;66.86;100271.21;105723;1281;112553;-70
2022/06/29 06:54:07;;;;;;;15.30;13.70;;;;;;;23.77;66.39;100279.88;106943;1280;107952;-70
2022/06/29 06:56:39;;;;;;;16.20;14.10;;;;;;;23.80;66.18;100285.80;105529;1281;138957;-72
2022/06/29 06:59:12;;;;;;;19.10;14.00;;;;;;;23.83;65.94;100287.58;107044;1281;96061;-70
2022/06/29 07:01:44;;;;;;;17.60;14.90;;;;;;;23.76;65.53;100288.36;106872;1280;141088;-70
2022/06/29 07:04:19;;;;;;;;;;;;;;;23.67;65.59;100286.42;107026;1280;112688;-70
2022/06/29 07:06:51;;;;;;;15.90;14.30;;;;;;;23.62;65.65;100285.11;106871;1281;125595;-71
2022/06/29 07:09:24;;;;;;;19.30;14.90;;;;;;;23.62;65.73;100288.84;107005;1281;107818;-71
2022/06/29 07:11:56;;;;;;;17.20;14.90;;;;;;;23.66;65.64;100292.02;107033;1280;96318;-71
2022/06/29 07:14:29;;;;;;;16.80;14.90;;;;;;;23.69;65.47;100295.17;106936;1279;139997;-71
2022/06/29 07:17:01;;;;;;;17.10;14.50;;;;;;;23.69;65.44;100294.92;107053;1279;111327;-71
2022/06/29 07:19:34;;;;;;;16.10;13.50;;;;;;;23.69;65.36;100300.25;106090;1281;139987;-70
2022/06/29 07:22:06;;;;;;;18.10;14.00;;;;;;;23.66;65.36;100300.55;105729;1281;109102;-72
2022/06/29 07:24:39;;;;;;;15.80;14.00;;;;;;;23.66;65.50;100296.29;106116;1281;139247;-72
2022/06/29 07:27:12;;;;;;;16.50;14.50;;;;;;;23.69;65.39;100293.88;105713;1281;97872;-72
2022/06/29 07:29:44;;;;;;;16.90;14.00;;;;;;;23.71;65.12;100296.02;107044;1280;111535;-70
2022/06/29 07:32:17;;;;;;;15.80;14.10;;;;;;;23.71;65.03;100296.39;106912;1280;138851;-70
2022/06/29 07:34:49;;;;;;;15.20;13.60;;;;;;;23.74;65.05;100294.58;106981;1280;108894;-70
2022/06/29 07:37:21;;;;;;;16.00;14.40;;;;;;;23.76;65.00;100290.33;106892;1280;142895;-70
2022/06/29 07:39:54;;;;;;;17.40;14.40;;;;;;;23.75;64.92;100289.46;107050;1280;97890;-70
2022/06/29 07:42:44;;;;;;;16.20;14.10;;;;;;;23.71;64.68;100287.34;106917;1280;140728;-69
2022/06/29 07:45:17;;;;;;;15.80;14.20;;;;;;;23.67;64.61;100288.08;107059;1280;108999;-70
2022/06/29 07:47:55;;;;;;;17.50;14.40;;;;;;;23.63;64.64;100286.63;107052;1280;109400;-74
2022/06/29 07:50:27;;;;;;;15.80;14.20;;;;;;;23.60;64.77;100282.64;106927;1280;138978;-71
2022/06/29 07:52:59;;;;;;;18.90;14.30;;;;;;;23.60;64.63;100284.40;105903;1281;97864;-71
2022/06/29 07:55:32;;;;;;;16.50;14.80;;;;;;;23.60;64.80;100281.91;105795;1280;138823;-71
2022/06/29 07:58:04;;;;;;;19.80;15.00;;;;;;;23.60;64.62;100282.42;106959;1280;108902;-71
2022/06/29 08:00:38;;;;;;;15.20;13.60;;;;;;;23.65;64.77;100282.52;105663;1280;139690;-71
2022/06/29 08:03:11;;;;;;;15.70;14.10;;;;;;;23.77;64.96;100285.79;105805;1281;97954;-71
2022/06/29 08:05:50;;;;;;;16.70;14.70;;;;;;;23.85;64.56;100290.20;107063;1281;96620;-70
2022/06/29 08:08:22;;;;;;;15.50;13.90;;;;;;;23.91;64.40;100288.80;106913;1280;140667;-70
2022/06/29 08:10:55;;;;;;;20.50;13.90;;;;;;;23.95;64.30;100287.35;107025;1280;108965;-71
2022/06/29 08:13:27;;;;;;;18.00;14.60;;;;;;;24.00;64.23;100280.55;106860;1280;138981;-70
2022/06/29 08:15:59;;;;;;;18.00;14.50;;;;;;;24.04;64.09;100280.75;107032;1281;95863;-71
2022/06/29 08:18:32;;;;;;;17.20;14.20;;;;;;;24.05;63.92;100279.22;107100;1281;96272;-70
2022/06/29 08:21:04;;;;;;;17.20;13.50;;;;;;;24.09;64.20;100277.60;107027;1280;111600;-71
2022/06/29 08:23:36;;;;;;;17.90;15.40;;;;;;;24.14;64.20;100278.95;107051;1280;109108;-70
2022/06/29 08:26:16;;;;;;;16.10;14.50;;;;;;;24.17;63.86;100279.77;106927;1280;139280;-69
2022/06/29 08:29:07;;;;;;;19.40;15.40;;;;;;;24.17;63.63;100276.23;107027;1280;96128;-70
2022/06/29 08:31:47;;;;;;;25.80;17.40;;;;;;;24.18;63.78;100276.43;106944;1281;139022;-70
2022/06/29 08:34:19;;;;;;;19.40;16.60;;;;;;;24.17;63.76;100272.28;107062;1281;112615;-70
2022/06/29 08:36:51;;;;;;;19.80;17.70;;;;;;;24.15;63.79;100271.23;106950;1280;138958;-70
2022/06/29 08:39:24;;;;;;;21.70;16.40;;;;;;;24.16;63.92;100268.89;106998;1281;109233;-70
2022/06/29 08:42:01;;;;;;;20.00;16.70;;;;;;;24.16;63.74;100262.66;106697;1280;96484;-69
2022/06/29 08:44:36;;;;;;;18.30;15.30;;;;;;;24.18;63.59;100265.33;105656;1281;138898;-70
2022/06/29 08:47:10;;;;;;;19.50;16.30;;;;;;;24.22;63.42;100265.64;106897;1280;112383;-70
2022/06/29 08:49:44;;;;;;;20.40;15.90;;;;;;;24.26;63.03;100263.90;106961;1280;139648;-70
2022/06/29 08:52:19;;;;;;;18.80;15.40;;;;;;;24.32;63.06;100251.82;106978;1280;109091;-70
2022/06/29 08:54:54;;;;;;;16.30;14.70;;;;;;;24.38;62.93;100251.20;106382;1280;141100;-72
2022/06/29 08:57:28;;;;;;;16.40;14.70;;;;;;;24.44;62.82;100252.33;107052;1279;96195;-76
2022/06/29 09:00:01;;;;;;;17.00;15.00;;;;;;;24.46;62.69;100256.73;106318;1280;112448;-69
2022/06/29 09:02:35;;;;;;;16.00;14.40;;;;;;;24.51;62.58;100257.04;105864;1280;138564;-69
2022/06/29 09:05:09;;;;;;;16.90;13.80;;;;;;;24.57;62.35;100259.35;106460;1281;109045;-70
2022/06/29 09:07:42;;;;;;;16.50;13.50;;;;;;;24.68;62.31;100260.57;105778;1281;138228;-68
2022/06/29 09:10:21;;;;;;;18.10;15.50;;;;;;;24.86;61.95;100262.88;106891;1281;95960;-69
2022/06/29 09:12:54;;;;;;;18.40;16.40;;;;;;;24.99;61.67;100259.03;106933;1280;139928;-69
2022/06/29 09:15:34;;;;;;;16.70;14.20;;;;;;;25.07;61.57;100261.34;107052;1280;108916;-69
2022/06/29 09:18:23;;;;;;;17.50;13.20;;;;;;;25.14;61.57;100269.95;107017;1280;108745;-69
2022/06/29 09:21:00;;;;;;;16.50;14.60;;;;;;;25.09;60.94;100269.13;106904;1281;138262;-69
2022/06/29 09:23:34;;;;;;;17.00;14.20;;;;;;;25.01;60.90;100269.02;106143;1281;97964;-68
2022/06/29 09:26:06;;;;;;;18.80;13.40;;;;;;;24.93;61.07;100269.30;105626;1280;140233;-68
2022/06/29 09:28:38;;;;;;;19.90;13.30;;;;;;;24.87;61.02;100272.38;105754;1281;108681;-69
2022/06/29 09:31:11;;;;;;;15.60;14.10;;;;;;;24.86;61.16;100273.05;105905;1280;138669;-70
2022/06/29 09:33:43;;;;;;;16.00;13.90;;;;;;;24.88;61.21;100273.36;106841;1281;96099;-70
2022/06/29 09:36:17;;;;;;;19.10;14.90;;;;;;;24.90;61.14;100272.48;107013;1280;96070;-70
2022/06/29 09:38:49;;;;;;;27.50;16.70;;;;;;;24.93;60.99;100271.29;106535;1281;138780;-70
2022/06/29 09:41:22;;;;;;;19.10;13.40;;;;;;;24.96;60.77;100264.33;107013;1281;107751;-69
2022/06/29 09:43:54;;;;;;;20.80;14.80;;;;;;;24.95;60.65;100265.79;106922;1280;138887;-70
2022/06/29 09:46:34;;;;;;;21.40;14.60;;;;;;;24.95;60.52;100267.41;106876;1281;97884;-70
2022/06/29 09:49:08;;;;;;;15.50;13.30;;;;;;;24.92;60.43;100268.67;105749;1281;343172;-69
2022/06/29 09:51:41;;;;;;;14.10;12.60;;;;;;;24.84;60.46;100271.11;105806;1281;112389;-70
2022/06/29 09:54:23;;;;;;;15.70;13.50;;;;;;;24.81;60.82;100269.27;106335;1279;109022;-69
2022/06/29 09:56:58;;;;;;;19.10;14.40;;;;;;;24.75;60.78;100271.36;105608;1280;138226;-69
2022/06/29 10:02:37;;;;;;;17.20;14.10;;;;;;;24.62;60.96;100273.77;106754;1281;139675;-71
2022/06/29 10:05:14;;;;;;;14.20;12.80;;;;;;;24.63;60.95;100274.89;107005;1280;112190;-70
2022/06/29 10:07:50;;;;;;;14.70;13.10;;;;;;;24.66;60.88;100270.37;106664;1281;139035;-70
2022/06/29 10:10:25;;;;;;;16.30;13.30;;;;;;;24.74;60.66;100281.93;107004;1280;108708;-70
2022/06/29 10:16:16;;;;;;;28.70;25.20;;;;;;;25.08;60.40;100284.73;107029;1280;96200;-70
2022/06/29 10:19:07;;;;;;;20.80;18.70;;;;;;;25.22;60.13;100286.96;106874;1281;138619;-70
2022/06/29 10:21:39;;;;;;;13.70;12.40;;;;;;;25.35;59.81;100288.84;107011;1280;109117;-70
2022/06/29 10:24:11;;;;;;;13.20;12.00;;;;;;;25.46;59.67;100290.41;106967;1279;108942;-71
2022/06/29 10:26:47;;;;;;;14.90;12.60;;;;;;;25.61;59.50;100286.50;106842;1280;138885;-70
2022/06/29 10:29:32;;;;;;;14.30;12.90;;;;;;;25.75;59.12;100286.07;107042;1279;96135;-69
2022/06/29 10:32:23;;;;;;;14.60;12.70;;;;;;;25.78;58.79;100288.27;106863;1280;138347;-70
2022/06/29 10:35:07;;;;;;;14.90;12.70;;;;;;;25.74;58.60;100288.02;107030;1281;107805;-71
2022/06/29 10:37:52;;;;;;;18.70;14.00;;;;;;;25.73;58.58;100282.54;106153;1280;139363;-69
2022/06/29 10:40:27;;;;;;;13.90;12.60;;;;;;;25.76;58.46;100279.40;106787;1281;97933;-69
2022/06/29 10:43:20;;;;;;;14.30;12.60;;;;;;;25.87;58.28;100275.90;105817;1280;139879;-69
2022/06/29 10:45:57;;;;;;;14.90;12.20;;;;;;;26.09;58.59;100270.84;105672;1281;112773;-70
2022/06/29 10:48:31;;;;;;;15.60;11.80;;;;;;;26.34;58.11;100266.20;106096;1281;107810;-70
2022/06/29 10:51:17;;;;;;;19.50;12.20;;;;;;;26.60;57.98;100256.70;105624;1281;108908;-70
2022/06/29 10:53:50;;;;;;;12.90;11.60;;;;;;;26.89;57.24;100250.86;106789;1281;98012;-70
2022/06/29 10:56:42;;;;;;;12.10;10.80;;;;;;;27.12;56.62;100254.69;105599;1281;139180;-70
2022/06/29 10:59:34;;;;;;;13.00;11.50;;;;;;;27.25;56.07;100255.42;105717;1281;112541;-73
2022/06/29 11:02:15;;;;;;;16.30;12.90;;;;;;;27.36;55.87;100257.05;105943;1281;138411;-70
2022/06/29 11:04:47;;;;;;;13.10;11.80;;;;;;;27.47;55.63;100252.86;106948;1281;106884;-69
2022/06/29 11:13:02;;;;;;;14.30;11.20;;;;;;;27.93;54.58;100259.88;106020;1281;138729;-69
2022/06/29 11:15:42;;;;;;;13.40;12.00;;;;;;;28.07;54.37;100258.39;105709;1280;109012;-69
2022/06/29 11:18:16;;;;;;;13.20;11.90;;;;;;;28.16;53.69;100259.02;105670;1281;107133;-69
2022/06/29 11:20:52;;;;;;;14.70;11.30;;;;;;;28.29;53.39;100255.14;106870;1280;138527;-68
2022/06/29 11:23:27;;;;;;;12.70;11.40;;;;;;;28.44;53.11;100251.42;106956;1280;96194;-65
2022/06/29 11:26:00;;;;;;;13.10;10.90;;;;;;;28.54;52.61;100248.13;106883;1280;138364;-70
2022/06/29 11:28:35;;;;;;;15.60;11.40;;;;;;;28.57;52.60;100246.24;106696;1284;108902;-71
2022/06/29 11:31:14;;;;;;;14.70;11.30;;;;;;;28.64;52.08;100243.59;105513;1281;138492;-70
2022/06/29 11:33:48;;;;;;;14.20;11.20;;;;;;;28.68;51.68;100240.46;106980;1280;96985;-71
2022/06/29 11:36:22;;;;;;;12.50;11.30;;;;;;;28.72;51.68;100241.58;106422;1280;96017;-71
2022/06/29 11:38:56;;;;;;;12.30;11.10;;;;;;;28.73;51.20;100238.96;106878;1281;138349;-71
2022/06/29 11:43:03;;;;;;;12.40;10.90;;;;;;;28.72;51.23;100237.85;106970;1280;108994;-70
2022/06/29 11:44:32;;;;;;;11.80;10.60;;;;;;;28.83;50.95;100236.77;106874;1280;138467;-72
2022/06/29 11:47:11;;;;;;;11.80;10.60;;;;;;;28.89;51.08;100231.85;105965;1280;97924;-71